RPi & Temperatures at JO21ut

Last graph updates: Sunday 30 April 2017 20:02 CEST

Sunrise: 06:06 & Sunset: 21:02 The Sun is currently visible at an elevation of 1.98 degrees and azimut of 292 and 150740101 Km from the Earth
Moonrise: 9:34 & Moonset: 25:40 Waxing Crescent Moon The Moon is 365956 Km from the Earth
Find here more details on MARS.

20:42:07 up 5 days, 17:07, 0 users, load average: 0.95, 0.69, 0.63
Current CPU frequency is: 1000 Mhz
Current GPU temperature: 29.324°C
Current inside temperature is 19.8°C with a humidity of 41.6%
Second inside temperature is 19.7°C with a pressure of 1002.14 Hpa (29.36 inHg) and an uncorrected altitude of 92.91 m
ds18b20 now showing 20.1°C

All the sensors I use, DHT22 | BMP085 | MPU6050 | BH1750FVI | MMA7455 | HMC5883L | MPL3115A2 | DS1307 | HTU21 | AM2321 | DS3231 | INA219 , and it's current readout can be viewed here please be patient as it needs to read all sensors data. The page loads after about 10 seconds. In our forum more details can be found such as the used software/sources. Feel free to add yours also..


Pressure BMP085
Pressure BMP085
Pressure BMP085
Pressure BMP085
PI CPU Temp
Inet Volkel temp
Inside temp BMP085
Humidity BMP085
PI CPU Temp
Inet Volkel temp
Inside temp BMP085
Humidity BMP085
PI CPU Temp
Inet Volkel temp
Inside temp BMP085
Humidity BMP085
PI CPU Temp
Inet Volkel temp
Inside temp BMP085
Humidity BMP085
PI CPU Temp
Inet Volkel temp
Inside temp BMP085
Humidity BMP085
Inside light BH1750FV
Inside light BH1750FV
Inside light BH1750FV
Inside light BH1750FV
Inside light BH1750FV
Inside light BH1750FV
 

Sun & Moon height


Wijchen weather

Weer Widget
ScreenSaver yr.no

Sun Moon Earth


EHVK 301825Z AUTO 11010KT 070V140 9999 SCT200 17/01 Q1005 BLU EHVK 301825Z AUTO 11010KT 070V140 9999 SCT200 17/01 Q1005 BLU EHVK 301825Z AUTO 11010KT 070V140 9999 SCT200 17/01 Q1005 BLU

Weather data from Volkel [NL] EHVK


17 minutes ago, at 18:25 UTC, the wind was blowing at a speed of 5.1 meters per second (11.5 miles per hour/10 knots) from East/Southeast (110) in Volkel [EHVK], Netherlands. The temperature was 17 °C (63 °F) with a dewpoint of 1 °C (34 °F), and the pressure was 1,005 hPa (29.68 inHg). The relative humidity was 33.9%. There were scattered clouds at a height of 6096 meter (20000 feet). The visibility was >10 kilometers (>6.2 miles).




View code:

Contact me  |  My Raspberry PI forum